sensor_id;sensor_type;location;lat;lon;timestamp;P1;durP1;ratioP1;P2;durP2;ratioP2
38252;SDS011;24785;52.372;20.672;2023-09-07T00:05:01;9.95;;;3.97;;
38252;SDS011;24785;52.372;20.672;2023-09-07T00:15:01;7.95;;;3.55;;
38252;SDS011;24785;52.372;20.672;2023-09-07T00:25:03;8.60;;;3.63;;
38252;SDS011;24785;52.372;20.672;2023-09-07T00:35:07;15.50;;;4.20;;
38252;SDS011;24785;52.372;20.672;2023-09-07T00:45:08;8.77;;;3.97;;
38252;SDS011;24785;52.372;20.672;2023-09-07T00:55:10;8.82;;;4.20;;
38252;SDS011;24785;52.372;20.672;2023-09-07T01:05:11;7.53;;;3.85;;
38252;SDS011;24785;52.372;20.672;2023-09-07T01:15:12;10.40;;;3.63;;
38252;SDS011;24785;52.372;20.672;2023-09-07T01:25:13;5.07;;;2.78;;
38252;SDS011;24785;52.372;20.672;2023-09-07T01:35:14;5.18;;;2.75;;
38252;SDS011;24785;52.372;20.672;2023-09-07T01:45:17;5.28;;;3.38;;
38252;SDS011;24785;52.372;20.672;2023-09-07T01:55:17;5.95;;;3.03;;
38252;SDS011;24785;52.372;20.672;2023-09-07T02:05:18;8.38;;;3.70;;
38252;SDS011;24785;52.372;20.672;2023-09-07T02:15:19;8.60;;;3.78;;
38252;SDS011;24785;52.372;20.672;2023-09-07T02:25:20;5.30;;;3.42;;
38252;SDS011;24785;52.372;20.672;2023-09-07T02:35:21;10.38;;;3.95;;
38252;SDS011;24785;52.372;20.672;2023-09-07T02:45:23;7.35;;;3.22;;
38252;SDS011;24785;52.372;20.672;2023-09-07T02:55:23;7.57;;;3.70;;
38252;SDS011;24785;52.372;20.672;2023-09-07T03:05:26;7.63;;;4.35;;
38252;SDS011;24785;52.372;20.672;2023-09-07T03:15:28;7.45;;;3.28;;
38252;SDS011;24785;52.372;20.672;2023-09-07T03:25:29;17.67;;;4.07;;
38252;SDS011;24785;52.372;20.672;2023-09-07T03:35:30;5.60;;;3.53;;
38252;SDS011;24785;52.372;20.672;2023-09-07T03:45:31;51.35;;;7.43;;
38252;SDS011;24785;52.372;20.672;2023-09-07T03:55:39;10.50;;;4.15;;
38252;SDS011;24785;52.372;20.672;2023-09-07T04:05:44;7.65;;;4.25;;
38252;SDS011;24785;52.372;20.672;2023-09-07T04:15:45;11.40;;;4.10;;
38252;SDS011;24785;52.372;20.672;2023-09-07T04:25:46;7.22;;;4.15;;
38252;SDS011;24785;52.372;20.672;2023-09-07T04:35:48;7.60;;;4.43;;
38252;SDS011;24785;52.372;20.672;2023-09-07T04:45:48;7.32;;;4.13;;
38252;SDS011;24785;52.372;20.672;2023-09-07T04:55:49;6.90;;;3.95;;
38252;SDS011;24785;52.372;20.672;2023-09-07T05:05:53;6.78;;;3.85;;
38252;SDS011;24785;52.372;20.672;2023-09-07T05:15:55;7.40;;;3.65;;
38252;SDS011;24785;52.372;20.672;2023-09-07T05:25:56;14.38;;;4.50;;
38252;SDS011;24785;52.372;20.672;2023-09-07T05:35:57;10.93;;;4.50;;
38252;SDS011;24785;52.372;20.672;2023-09-07T05:45:58;16.85;;;6.72;;
38252;SDS011;24785;52.372;20.672;2023-09-07T05:55:59;18.77;;;8.52;;
38252;SDS011;24785;52.372;20.672;2023-09-07T06:05:59;16.40;;;8.70;;
38252;SDS011;24785;52.372;20.672;2023-09-07T06:16:00;12.68;;;8.25;;
38252;SDS011;24785;52.372;20.672;2023-09-07T06:26:01;20.77;;;9.80;;
38252;SDS011;24785;52.372;20.672;2023-09-07T06:36:03;16.23;;;10.13;;
38252;SDS011;24785;52.372;20.672;2023-09-07T06:46:07;14.75;;;8.02;;
38252;SDS011;24785;52.372;20.672;2023-09-07T06:56:09;15.77;;;8.55;;
38252;SDS011;24785;52.372;20.672;2023-09-07T07:06:10;17.77;;;9.00;;
38252;SDS011;24785;52.372;20.672;2023-09-07T07:16:11;14.95;;;8.20;;
38252;SDS011;24785;52.372;20.672;2023-09-07T07:26:12;13.07;;;6.90;;
38252;SDS011;24785;52.372;20.672;2023-09-07T07:36:13;9.85;;;6.38;;
38252;SDS011;24785;52.372;20.672;2023-09-07T07:46:14;13.93;;;6.82;;
38252;SDS011;24785;52.372;20.672;2023-09-07T07:56:18;9.55;;;6.03;;
38252;SDS011;24785;52.372;20.672;2023-09-07T08:06:19;8.73;;;5.63;;
38252;SDS011;24785;52.372;20.672;2023-09-07T08:16:19;12.60;;;5.20;;
38252;SDS011;24785;52.372;20.672;2023-09-07T08:26:20;14.52;;;5.50;;
38252;SDS011;24785;52.372;20.672;2023-09-07T08:36:21;11.95;;;4.97;;
38252;SDS011;24785;52.372;20.672;2023-09-07T08:46:24;10.55;;;4.90;;
38252;SDS011;24785;52.372;20.672;2023-09-07T08:56:25;17.53;;;4.57;;
38252;SDS011;24785;52.372;20.672;2023-09-07T09:06:26;10.03;;;4.33;;
38252;SDS011;24785;52.372;20.672;2023-09-07T09:16:27;8.30;;;4.00;;
38252;SDS011;24785;52.372;20.672;2023-09-07T09:26:28;8.10;;;3.60;;
38252;SDS011;24785;52.372;20.672;2023-09-07T09:36:35;8.07;;;3.43;;
38252;SDS011;24785;52.372;20.672;2023-09-07T09:46:36;6.03;;;3.13;;
38252;SDS011;24785;52.372;20.672;2023-09-07T09:56:41;7.25;;;3.40;;
38252;SDS011;24785;52.372;20.672;2023-09-07T10:06:55;18.27;;;4.45;;
38252;SDS011;24785;52.372;20.672;2023-09-07T10:16:56;8.30;;;3.10;;
38252;SDS011;24785;52.372;20.672;2023-09-07T10:27:05;8.25;;;3.17;;
38252;SDS011;24785;52.372;20.672;2023-09-07T10:37:06;7.88;;;3.22;;
38252;SDS011;24785;52.372;20.672;2023-09-07T10:47:10;4.35;;;2.65;;
38252;SDS011;24785;52.372;20.672;2023-09-07T10:57:12;6.50;;;2.90;;
38252;SDS011;24785;52.372;20.672;2023-09-07T11:07:18;6.45;;;2.80;;
38252;SDS011;24785;52.372;20.672;2023-09-07T11:17:19;7.53;;;3.50;;
38252;SDS011;24785;52.372;20.672;2023-09-07T11:27:20;4.60;;;3.00;;
38252;SDS011;24785;52.372;20.672;2023-09-07T11:37:23;5.15;;;2.50;;
38252;SDS011;24785;52.372;20.672;2023-09-07T11:47:25;7.50;;;3.13;;
38252;SDS011;24785;52.372;20.672;2023-09-07T11:57:26;4.17;;;2.60;;
38252;SDS011;24785;52.372;20.672;2023-09-07T12:07:27;5.67;;;2.63;;
38252;SDS011;24785;52.372;20.672;2023-09-07T12:17:27;4.53;;;2.60;;
38252;SDS011;24785;52.372;20.672;2023-09-07T12:27:28;7.87;;;2.90;;
38252;SDS011;24785;52.372;20.672;2023-09-07T12:37:29;10.53;;;2.53;;
38252;SDS011;24785;52.372;20.672;2023-09-07T12:47:30;3.97;;;2.47;;
38252;SDS011;24785;52.372;20.672;2023-09-07T12:57:30;3.60;;;2.17;;
38252;SDS011;24785;52.372;20.672;2023-09-07T13:07:32;5.17;;;2.27;;
38252;SDS011;24785;52.372;20.672;2023-09-07T13:17:33;8.13;;;2.42;;
38252;SDS011;24785;52.372;20.672;2023-09-07T13:27:34;4.70;;;2.40;;
38252;SDS011;24785;52.372;20.672;2023-09-07T13:37:35;4.00;;;2.00;;
38252;SDS011;24785;52.372;20.672;2023-09-07T13:47:36;5.67;;;2.43;;
38252;SDS011;24785;52.372;20.672;2023-09-07T13:57:37;4.43;;;2.15;;
38252;SDS011;24785;52.372;20.672;2023-09-07T14:07:38;4.47;;;2.10;;
38252;SDS011;24785;52.372;20.672;2023-09-07T14:17:39;4.13;;;1.87;;
38252;SDS011;24785;52.372;20.672;2023-09-07T14:27:39;5.00;;;2.00;;
38252;SDS011;24785;52.372;20.672;2023-09-07T14:37:40;4.33;;;2.10;;
38252;SDS011;24785;52.372;20.672;2023-09-07T14:47:41;11.17;;;2.43;;
38252;SDS011;24785;52.372;20.672;2023-09-07T14:57:42;4.07;;;1.60;;
38252;SDS011;24785;52.372;20.672;2023-09-07T15:07:43;4.60;;;1.90;;
38252;SDS011;24785;52.372;20.672;2023-09-07T15:17:46;5.03;;;1.87;;
38252;SDS011;24785;52.372;20.672;2023-09-07T15:27:48;3.53;;;1.90;;
38252;SDS011;24785;52.372;20.672;2023-09-07T15:37:49;6.47;;;2.10;;
38252;SDS011;24785;52.372;20.672;2023-09-07T15:47:50;4.30;;;2.63;;
38252;SDS011;24785;52.372;20.672;2023-09-07T15:57:50;9.70;;;2.53;;
38252;SDS011;24785;52.372;20.672;2023-09-07T16:07:52;9.87;;;2.77;;
38252;SDS011;24785;52.372;20.672;2023-09-07T16:27:53;5.13;;;2.33;;
38252;SDS011;24785;52.372;20.672;2023-09-07T16:37:56;15.07;;;2.50;;
38252;SDS011;24785;52.372;20.672;2023-09-07T16:47:56;10.60;;;2.63;;
38252;SDS011;24785;52.372;20.672;2023-09-07T16:57:58;12.93;;;2.60;;
38252;SDS011;24785;52.372;20.672;2023-09-07T17:07:58;7.70;;;2.60;;
38252;SDS011;24785;52.372;20.672;2023-09-07T17:17:59;13.07;;;3.07;;
38252;SDS011;24785;52.372;20.672;2023-09-07T17:28:00;9.88;;;3.25;;
38252;SDS011;24785;52.372;20.672;2023-09-07T17:38:01;9.30;;;3.10;;
38252;SDS011;24785;52.372;20.672;2023-09-07T17:48:01;16.23;;;3.92;;
38252;SDS011;24785;52.372;20.672;2023-09-07T17:58:02;7.47;;;4.18;;
38252;SDS011;24785;52.372;20.672;2023-09-07T18:08:03;16.95;;;5.47;;
38252;SDS011;24785;52.372;20.672;2023-09-07T18:18:05;10.15;;;3.92;;
38252;SDS011;24785;52.372;20.672;2023-09-07T18:28:06;23.65;;;4.70;;
38252;SDS011;24785;52.372;20.672;2023-09-07T18:38:07;11.15;;;3.63;;
38252;SDS011;24785;52.372;20.672;2023-09-07T18:48:08;19.98;;;4.30;;
38252;SDS011;24785;52.372;20.672;2023-09-07T18:58:09;22.63;;;4.70;;
38252;SDS011;24785;52.372;20.672;2023-09-07T19:08:10;22.70;;;4.80;;
38252;SDS011;24785;52.372;20.672;2023-09-07T19:18:11;30.77;;;6.85;;
38252;SDS011;24785;52.372;20.672;2023-09-07T19:28:12;10.45;;;4.50;;
38252;SDS011;24785;52.372;20.672;2023-09-07T19:38:13;17.13;;;5.20;;
38252;SDS011;24785;52.372;20.672;2023-09-07T19:48:14;22.65;;;5.85;;
38252;SDS011;24785;52.372;20.672;2023-09-07T19:58:15;18.77;;;6.85;;
38252;SDS011;24785;52.372;20.672;2023-09-07T20:08:16;17.38;;;6.78;;
38252;SDS011;24785;52.372;20.672;2023-09-07T20:18:17;15.60;;;6.95;;
38252;SDS011;24785;52.372;20.672;2023-09-07T20:28:18;19.70;;;7.13;;
38252;SDS011;24785;52.372;20.672;2023-09-07T20:38:19;21.08;;;7.28;;
38252;SDS011;24785;52.372;20.672;2023-09-07T20:48:20;21.67;;;8.57;;
38252;SDS011;24785;52.372;20.672;2023-09-07T20:58:21;17.70;;;8.23;;
38252;SDS011;24785;52.372;20.672;2023-09-07T21:08:22;15.90;;;7.32;;
38252;SDS011;24785;52.372;20.672;2023-09-07T21:18:23;20.23;;;8.55;;
38252;SDS011;24785;52.372;20.672;2023-09-07T21:28:24;13.80;;;6.95;;
38252;SDS011;24785;52.372;20.672;2023-09-07T21:38:25;9.85;;;4.97;;
38252;SDS011;24785;52.372;20.672;2023-09-07T21:48:25;10.98;;;6.25;;
38252;SDS011;24785;52.372;20.672;2023-09-07T21:58:26;8.05;;;5.40;;
38252;SDS011;24785;52.372;20.672;2023-09-07T22:08:27;8.57;;;5.07;;
38252;SDS011;24785;52.372;20.672;2023-09-07T22:18:29;13.88;;;8.07;;
38252;SDS011;24785;52.372;20.672;2023-09-07T22:28:29;8.38;;;5.45;;
38252;SDS011;24785;52.372;20.672;2023-09-07T22:38:30;10.93;;;5.60;;
38252;SDS011;24785;52.372;20.672;2023-09-07T22:48:31;10.95;;;6.43;;
38252;SDS011;24785;52.372;20.672;2023-09-07T22:58:32;8.65;;;5.18;;
38252;SDS011;24785;52.372;20.672;2023-09-07T23:08:33;9.77;;;5.70;;
38252;SDS011;24785;52.372;20.672;2023-09-07T23:18:33;14.43;;;7.85;;
38252;SDS011;24785;52.372;20.672;2023-09-07T23:28:37;10.88;;;6.00;;
38252;SDS011;24785;52.372;20.672;2023-09-07T23:38:39;12.25;;;7.20;;
38252;SDS011;24785;52.372;20.672;2023-09-07T23:48:41;11.32;;;5.93;;
38252;SDS011;24785;52.372;20.672;2023-09-07T23:58:43;9.80;;;6.10;;
